createdAt,value
2023-03-19T00:00:29.027Z,2.95
2023-03-19T00:02:56.189Z,2.90
2023-03-19T00:05:22.927Z,2.62
2023-03-19T00:07:49.496Z,3.26
2023-03-19T00:10:16.149Z,3.24
2023-03-19T00:12:42.809Z,3.15
2023-03-19T00:15:14.096Z,3.30
2023-03-19T00:17:44.062Z,3.01
2023-03-19T00:20:12.844Z,3.89
2023-03-19T00:22:40.288Z,3.74
2023-03-19T00:25:08.574Z,3.91
2023-03-19T00:27:37.287Z,3.69
2023-03-19T00:30:06.154Z,3.59
2023-03-19T00:32:33.981Z,3.54
2023-03-19T00:35:00.689Z,3.87
2023-03-19T00:37:27.750Z,4.01
2023-03-19T00:39:54.404Z,3.85
2023-03-19T00:42:21.287Z,4.09
2023-03-19T00:44:47.844Z,3.82
2023-03-19T00:47:14.468Z,3.73
2023-03-19T00:49:41.031Z,3.87
2023-03-19T00:52:08.338Z,3.86
2023-03-19T00:54:34.973Z,3.90
2023-03-19T00:57:01.739Z,3.90
2023-03-19T00:59:28.378Z,4.13
2023-03-19T01:01:55.201Z,4.19
2023-03-19T01:04:23.234Z,4.38
2023-03-19T01:06:50.104Z,4.35
2023-03-19T01:09:16.784Z,4.35
2023-03-19T01:11:43.819Z,4.37
2023-03-19T01:14:10.631Z,4.59
2023-03-19T01:16:37.200Z,4.40
2023-03-19T01:19:04.210Z,4.51
2023-03-19T01:21:31.140Z,4.44
2023-03-19T01:23:58.875Z,4.46
2023-03-19T01:26:26.089Z,4.67
2023-03-19T01:28:53.399Z,4.94
2023-03-19T01:31:20.167Z,4.50
2023-03-19T01:33:47.660Z,4.82
2023-03-19T01:36:14.384Z,4.45
2023-03-19T01:38:41.199Z,5.04
2023-03-19T01:41:07.936Z,4.81
2023-03-19T01:43:34.545Z,5.31
2023-03-19T01:46:29.144Z,5.54
2023-03-19T01:49:00.554Z,5.42
2023-03-19T01:51:33.685Z,5.83
2023-03-19T01:54:05.184Z,5.65
2023-03-19T01:56:38.355Z,5.38
2023-03-19T01:59:14.828Z,5.96
2023-03-19T02:01:52.170Z,5.88
2023-03-19T02:04:19.355Z,5.74
2023-03-19T02:06:46.976Z,5.67
2023-03-19T02:09:15.190Z,5.92
2023-03-19T02:11:42.086Z,5.97
2023-03-19T02:14:10.060Z,5.94
2023-03-19T02:16:36.744Z,5.96
2023-03-19T02:19:04.918Z,6.10
2023-03-19T02:21:32.389Z,5.72
2023-03-19T02:24:06.576Z,5.62
2023-03-19T02:26:33.770Z,5.80
2023-03-19T02:29:00.635Z,5.82
2023-03-19T02:31:28.038Z,5.82
2023-03-19T02:34:03.948Z,6.06
2023-03-19T02:36:38.652Z,5.96
2023-03-19T02:39:11.012Z,6.39
2023-03-19T02:41:41.992Z,6.38
2023-03-19T02:44:12.098Z,6.04
2023-03-19T02:46:38.763Z,6.05
2023-03-19T02:49:05.552Z,6.00
2023-03-19T02:51:32.454Z,6.12
2023-03-19T02:54:00.865Z,6.27
2023-03-19T02:56:27.672Z,6.22
2023-03-19T02:58:54.278Z,6.69
2023-03-19T03:01:20.992Z,6.73
2023-03-19T03:03:47.662Z,6.68
2023-03-19T03:06:14.291Z,6.64
2023-03-19T03:08:41.269Z,6.99
2023-03-19T03:11:07.838Z,6.91
2023-03-19T03:13:34.463Z,7.53
2023-03-19T03:16:01.140Z,7.47
2023-03-19T03:18:28.153Z,7.50
2023-03-19T03:20:54.770Z,7.82
2023-03-19T03:23:22.031Z,7.48
2023-03-19T03:25:50.636Z,7.99
2023-03-19T03:28:17.870Z,8.73
2023-03-19T03:30:45.049Z,9.69
2023-03-19T03:33:12.100Z,9.49
2023-03-19T03:35:38.880Z,9.96
2023-03-19T03:38:06.692Z,10.38
2023-03-19T03:40:34.406Z,10.30
2023-03-19T03:43:01.337Z,10.55
2023-03-19T03:45:27.971Z,10.70
2023-03-19T03:47:54.644Z,11.49
2023-03-19T03:50:21.685Z,11.23
2023-03-19T03:52:48.263Z,11.61
2023-03-19T03:55:15.222Z,11.74
2023-03-19T03:57:41.788Z,12.89
2023-03-19T04:00:09.189Z,12.86
2023-03-19T04:02:35.824Z,12.74
2023-03-19T04:05:02.457Z,12.73
2023-03-19T04:07:29.007Z,13.37
2023-03-19T04:09:58.312Z,13.45
2023-03-19T04:12:25.011Z,13.82
2023-03-19T04:14:52.056Z,13.10
2023-03-19T04:17:18.620Z,13.97
2023-03-19T04:19:47.041Z,14.90
2023-03-19T04:22:14.034Z,14.70
2023-03-19T04:24:41.301Z,15.16
2023-03-19T04:27:08.372Z,14.90
2023-03-19T04:29:34.944Z,14.84
2023-03-19T04:32:01.611Z,15.50
2023-03-19T04:34:28.321Z,14.96
2023-03-19T04:36:54.970Z,15.33
2023-03-19T04:39:21.558Z,14.42
2023-03-19T04:41:48.203Z,14.90
2023-03-19T04:44:14.811Z,14.88
2023-03-19T04:46:42.001Z,14.85
2023-03-19T04:49:09.203Z,15.19
2023-03-19T04:51:35.818Z,15.44
2023-03-19T04:54:02.443Z,15.73
2023-03-19T04:56:29.102Z,15.52
2023-03-19T04:58:55.702Z,15.50
2023-03-19T05:01:22.472Z,16.00
2023-03-19T05:03:49.669Z,15.87
2023-03-19T05:06:17.275Z,16.02
2023-03-19T05:08:43.925Z,16.71
2023-03-19T05:11:10.700Z,17.44
2023-03-19T05:13:37.378Z,16.81
2023-03-19T05:16:04.395Z,16.74
2023-03-19T05:18:31.030Z,17.17
2023-03-19T05:20:57.728Z,17.13
2023-03-19T05:23:24.344Z,17.99
2023-03-19T05:25:51.018Z,17.88
2023-03-19T05:28:18.804Z,17.78
2023-03-19T05:30:45.522Z,16.86
2023-03-19T05:33:12.630Z,17.71
2023-03-19T05:35:39.603Z,16.91
2023-03-19T05:38:06.483Z,16.51
2023-03-19T05:40:35.040Z,16.71
2023-03-19T05:43:02.039Z,17.31
2023-03-19T05:45:28.786Z,17.87
2023-03-19T05:47:55.414Z,16.52
2023-03-19T05:50:22.122Z,16.77
2023-03-19T05:52:48.801Z,17.58
2023-03-19T05:55:15.584Z,16.87
2023-03-19T05:57:42.403Z,17.66
2023-03-19T06:00:10.587Z,16.92
2023-03-19T06:02:37.763Z,17.60
2023-03-19T06:05:06.282Z,17.27
2023-03-19T06:07:32.904Z,17.87
2023-03-19T06:09:59.580Z,18.37
2023-03-19T06:12:26.371Z,18.76
2023-03-19T06:14:53.037Z,19.24
2023-03-19T06:17:19.966Z,19.19
2023-03-19T06:19:46.583Z,20.54
2023-03-19T06:22:13.227Z,19.66
2023-03-19T06:24:40.073Z,20.20
2023-03-19T06:27:06.747Z,19.83
2023-03-19T06:29:33.336Z,19.27
2023-03-19T06:32:00.424Z,20.25
2023-03-19T06:34:27.565Z,19.91
2023-03-19T06:36:54.225Z,20.06
2023-03-19T06:39:21.606Z,19.49
2023-03-19T06:41:48.294Z,19.73
2023-03-19T06:44:15.031Z,19.84
2023-03-19T06:46:41.684Z,20.02
2023-03-19T06:49:08.266Z,19.16
2023-03-19T06:51:34.908Z,19.18
2023-03-19T06:54:01.658Z,18.53
2023-03-19T06:56:29.379Z,18.90
2023-03-19T06:58:56.461Z,18.46
2023-03-19T07:01:23.131Z,18.35
2023-03-19T07:03:50.003Z,19.46
2023-03-19T07:06:16.662Z,19.15
2023-03-19T07:08:46.392Z,20.36
2023-03-19T07:11:14.770Z,19.74
2023-03-19T07:13:41.569Z,20.69
2023-03-19T07:16:08.837Z,20.48
2023-03-19T07:18:35.929Z,20.67
2023-03-19T07:21:02.654Z,21.60
2023-03-19T07:23:29.256Z,21.67
2023-03-19T07:25:55.918Z,22.96
2023-03-19T07:28:23.049Z,22.56
2023-03-19T07:30:52.873Z,23.62
2023-03-19T07:33:20.206Z,26.45
2023-03-19T07:35:46.954Z,26.81
2023-03-19T07:38:14.676Z,28.20
2023-03-19T07:40:45.538Z,27.83
2023-03-19T07:43:18.086Z,26.99
2023-03-19T07:45:44.821Z,29.38
2023-03-19T07:48:12.540Z,28.38
2023-03-19T07:50:39.246Z,27.94
2023-03-19T07:53:06.371Z,29.09
2023-03-19T07:55:33.097Z,27.47
2023-03-19T07:57:59.998Z,29.51
2023-03-19T08:00:27.363Z,30.89
2023-03-19T08:02:53.995Z,31.51
2023-03-19T08:05:20.637Z,33.17
2023-03-19T08:07:49.495Z,31.81
2023-03-19T08:10:16.366Z,30.72
2023-03-19T08:12:42.976Z,29.66
2023-03-19T08:15:11.683Z,30.40
2023-03-19T08:17:38.937Z,30.86
2023-03-19T08:20:08.431Z,28.00
2023-03-19T08:22:39.575Z,30.57
2023-03-19T08:25:07.561Z,29.47
2023-03-19T08:27:36.055Z,31.51
2023-03-19T08:30:05.669Z,30.63
2023-03-19T08:32:32.268Z,29.29
2023-03-19T08:34:58.863Z,29.90
2023-03-19T08:37:25.622Z,28.45
2023-03-19T08:39:52.995Z,28.70
2023-03-19T08:42:20.365Z,30.20
2023-03-19T08:44:47.355Z,29.29
2023-03-19T08:47:14.014Z,29.28
2023-03-19T08:49:40.898Z,29.90
2023-03-19T08:52:07.660Z,31.06
2023-03-19T08:54:34.765Z,30.39
2023-03-19T08:57:01.562Z,29.46
2023-03-19T08:59:28.407Z,29.72
2023-03-19T09:01:55.581Z,28.83
2023-03-19T09:04:22.301Z,29.45
2023-03-19T09:06:52.288Z,29.90
2023-03-19T09:09:21.108Z,30.30
2023-03-19T09:11:48.896Z,29.67
2023-03-19T09:14:17.865Z,29.88
2023-03-19T09:16:44.487Z,27.54
2023-03-19T09:19:11.202Z,27.87
2023-03-19T09:21:37.928Z,27.34
2023-03-19T09:24:05.323Z,27.32
2023-03-19T09:26:31.984Z,26.77
2023-03-19T09:28:59.244Z,25.54
2023-03-19T09:31:28.418Z,25.33
2023-03-19T09:33:56.181Z,23.65
2023-03-19T09:36:22.755Z,24.02
2023-03-19T09:38:50.137Z,23.37
2023-03-19T09:41:47.737Z,25.40
2023-03-19T09:44:34.634Z,24.97
2023-03-19T09:47:23.951Z,24.44
2023-03-19T09:49:52.678Z,23.93
2023-03-19T09:52:19.236Z,24.25
2023-03-19T09:54:48.993Z,23.44
2023-03-19T09:57:17.460Z,22.83
2023-03-19T09:59:44.367Z,23.92
2023-03-19T10:02:32.178Z,23.04
2023-03-19T10:05:43.488Z,23.46
2023-03-19T10:08:21.930Z,22.48
2023-03-19T10:10:58.399Z,22.33
2023-03-19T10:13:32.319Z,22.57
2023-03-19T10:16:01.851Z,23.12
2023-03-19T10:18:32.924Z,24.75
2023-03-19T10:21:19.449Z,27.11
2023-03-19T10:23:54.527Z,25.89
2023-03-19T10:26:28.145Z,27.05
2023-03-19T10:29:01.758Z,25.56
2023-03-19T10:31:39.063Z,26.26
2023-03-19T10:34:21.862Z,24.43
2023-03-19T10:36:48.509Z,24.72
2023-03-19T10:39:18.678Z,24.89
2023-03-19T10:42:25.665Z,25.47
2023-03-19T10:45:15.598Z,25.17
2023-03-19T10:47:43.455Z,25.74
2023-03-19T10:50:20.069Z,26.06
2023-03-19T10:52:52.253Z,25.14
2023-03-19T10:55:25.970Z,26.58
2023-03-19T10:58:03.546Z,26.05
2023-03-19T11:00:33.351Z,26.42
2023-03-19T11:03:04.092Z,27.72
2023-03-19T11:05:34.958Z,28.78
2023-03-19T11:08:25.741Z,26.35
2023-03-19T11:11:01.808Z,25.74
2023-03-19T11:13:28.686Z,25.13
2023-03-19T11:16:00.260Z,27.65
2023-03-19T11:18:40.007Z,28.81
2023-03-19T11:21:28.762Z,26.42
2023-03-19T11:24:03.829Z,22.89
2023-03-19T11:26:31.336Z,21.78
2023-03-19T11:29:04.515Z,21.97
2023-03-19T11:31:40.613Z,22.34
2023-03-19T11:34:34.021Z,20.34
2023-03-19T11:37:14.026Z,20.25
2023-03-19T11:40:11.937Z,21.34
2023-03-19T11:42:54.009Z,21.66
2023-03-19T11:45:55.951Z,23.01
2023-03-19T11:49:03.306Z,23.08
2023-03-19T11:51:48.098Z,21.38
2023-03-19T11:54:27.145Z,21.95
2023-03-19T11:57:17.140Z,20.04
2023-03-19T12:00:01.969Z,21.33
2023-03-19T12:02:59.754Z,22.92
2023-03-19T12:05:42.542Z,23.02
2023-03-19T12:08:14.910Z,23.87
2023-03-19T12:11:01.639Z,24.78
2023-03-19T12:14:09.569Z,25.95
2023-03-19T12:17:04.363Z,26.31
2023-03-19T12:19:55.331Z,25.05
2023-03-19T12:22:47.282Z,25.49
2023-03-19T12:25:53.082Z,24.66
2023-03-19T12:28:22.594Z,26.06
2023-03-19T12:31:10.448Z,24.67
2023-03-19T12:33:49.176Z,25.24
2023-03-19T12:36:23.531Z,23.03
2023-03-19T12:38:58.242Z,21.01
2023-03-19T12:41:28.346Z,21.75
2023-03-19T12:44:04.572Z,21.42
2023-03-19T12:46:42.953Z,21.58
2023-03-19T12:49:17.691Z,21.09
2023-03-19T12:52:08.733Z,21.07
2023-03-19T12:54:51.862Z,21.08
2023-03-19T12:57:33.663Z,20.82
2023-03-19T13:00:13.954Z,20.01
2023-03-19T13:03:01.556Z,20.11
2023-03-19T13:05:59.506Z,19.29
2023-03-19T13:08:33.462Z,19.79
2023-03-19T13:11:05.213Z,19.54
2023-03-19T13:13:46.462Z,20.23
2023-03-19T13:16:32.393Z,20.24
2023-03-19T13:19:18.106Z,18.95
2023-03-19T13:21:49.269Z,18.03
2023-03-19T13:24:28.317Z,18.19
2023-03-19T13:26:59.243Z,19.80
2023-03-19T13:29:31.748Z,19.56
2023-03-19T13:32:05.615Z,18.41
2023-03-19T13:34:35.883Z,18.07
2023-03-19T13:37:02.766Z,17.79
2023-03-19T13:39:33.939Z,16.29
2023-03-19T13:42:06.577Z,16.44
2023-03-19T13:44:51.472Z,15.89
2023-03-19T13:47:28.650Z,17.51
2023-03-19T13:50:16.228Z,18.65
2023-03-19T13:52:49.738Z,17.89
2023-03-19T13:55:28.411Z,17.26
2023-03-19T13:58:12.371Z,17.51
2023-03-19T14:00:42.835Z,17.25
2023-03-19T14:03:25.310Z,17.78
2023-03-19T14:05:56.424Z,18.98
2023-03-19T14:08:27.511Z,18.22
2023-03-19T14:11:00.264Z,17.82
2023-03-19T14:13:48.786Z,17.47
2023-03-19T14:16:18.296Z,17.02
2023-03-19T14:18:45.748Z,17.12
2023-03-19T14:21:30.962Z,16.33
2023-03-19T14:24:55.383Z,15.65
2023-03-19T14:27:25.289Z,16.51
2023-03-19T14:29:55.611Z,16.44
2023-03-19T14:32:40.855Z,16.78
2023-03-19T14:35:14.838Z,16.23
2023-03-19T14:37:49.827Z,16.55
2023-03-19T14:40:31.617Z,15.49
2023-03-19T14:43:36.682Z,15.35
2023-03-19T14:46:05.215Z,15.50
2023-03-19T14:49:21.381Z,15.28
2023-03-19T14:52:31.891Z,15.62
2023-03-19T14:54:58.454Z,14.95
2023-03-19T14:57:35.539Z,14.36
2023-03-19T15:00:07.177Z,16.05
2023-03-19T15:02:49.324Z,15.95
2023-03-19T15:05:29.614Z,15.40
2023-03-19T15:08:11.492Z,15.83
2023-03-19T15:11:07.092Z,15.72
2023-03-19T15:13:33.729Z,16.56
2023-03-19T15:16:17.293Z,15.84
2023-03-19T15:18:44.009Z,16.00
2023-03-19T15:21:10.798Z,16.94
2023-03-19T15:23:41.037Z,15.86
2023-03-19T15:26:11.589Z,14.64
2023-03-19T15:28:49.405Z,14.09
2023-03-19T15:31:31.838Z,14.61
2023-03-19T15:34:17.837Z,14.78
2023-03-19T15:36:46.357Z,14.61
2023-03-19T15:39:18.271Z,15.31
2023-03-19T15:41:49.726Z,14.72
2023-03-19T15:44:38.479Z,15.58
2023-03-19T15:47:11.741Z,15.49
2023-03-19T15:49:44.028Z,16.21
2023-03-19T15:52:19.382Z,15.47
2023-03-19T15:54:46.530Z,15.99
2023-03-19T15:57:17.708Z,15.17
2023-03-19T15:59:45.940Z,14.63
2023-03-19T16:02:29.539Z,14.64
2023-03-19T16:05:20.879Z,14.66
2023-03-19T16:07:44.750Z,15.50
2023-03-19T16:10:35.361Z,15.13
2023-03-19T16:13:18.553Z,15.81
2023-03-19T16:15:47.907Z,15.84
2023-03-19T16:18:20.515Z,15.83
2023-03-19T16:21:02.422Z,16.29
2023-03-19T16:23:40.568Z,16.69
2023-03-19T16:26:21.769Z,18.94
2023-03-19T16:29:20.161Z,18.76
2023-03-19T16:31:51.920Z,18.67
2023-03-19T16:34:46.734Z,19.49
2023-03-19T16:37:43.849Z,19.40
2023-03-19T16:40:13.447Z,19.78
2023-03-19T16:42:41.048Z,19.66
2023-03-19T16:45:29.880Z,21.16
2023-03-19T16:48:03.483Z,21.34
2023-03-19T16:50:35.042Z,22.00
2023-03-19T16:53:04.374Z,22.65
2023-03-19T16:55:37.459Z,22.72
2023-03-19T16:58:18.001Z,24.50
2023-03-19T17:00:45.799Z,24.85
2023-03-19T17:03:15.646Z,24.49
2023-03-19T17:05:43.442Z,25.24
2023-03-19T17:08:11.643Z,25.01
2023-03-19T17:10:51.904Z,24.80
2023-03-19T17:13:22.795Z,25.72
2023-03-19T17:15:51.266Z,26.02
2023-03-19T17:18:24.917Z,27.25
2023-03-19T17:21:07.970Z,27.16
2023-03-19T17:23:35.051Z,27.25
2023-03-19T17:26:03.051Z,27.45
2023-03-19T17:28:32.376Z,26.37
2023-03-19T17:30:59.269Z,25.72
2023-03-19T17:33:29.144Z,27.76
2023-03-19T17:35:58.104Z,28.94
2023-03-19T17:38:33.820Z,28.27
2023-03-19T17:41:00.450Z,29.14
2023-03-19T17:43:27.114Z,28.56
2023-03-19T17:45:55.515Z,27.32
2023-03-19T17:48:26.215Z,26.34
2023-03-19T17:50:59.980Z,27.84
2023-03-19T17:53:26.920Z,27.74
2023-03-19T17:55:53.531Z,27.19
2023-03-19T17:58:22.629Z,26.87
2023-03-19T18:00:51.325Z,27.20
2023-03-19T18:03:21.444Z,27.14
2023-03-19T18:05:50.470Z,26.36
2023-03-19T18:08:20.897Z,26.65
2023-03-19T18:10:47.742Z,27.59
2023-03-19T18:13:14.510Z,28.11
2023-03-19T18:15:44.039Z,28.95
2023-03-19T18:18:18.720Z,28.23
2023-03-19T18:20:47.450Z,28.07
2023-03-19T18:23:18.149Z,28.38
2023-03-19T18:25:46.215Z,28.14
2023-03-19T18:28:13.020Z,28.80
2023-03-19T18:30:41.762Z,28.56
2023-03-19T18:33:16.472Z,29.59
2023-03-19T18:35:45.502Z,29.86
2023-03-19T18:38:19.389Z,29.86
2023-03-19T18:40:47.282Z,29.66
2023-03-19T18:43:16.066Z,29.26
2023-03-19T18:45:45.680Z,29.86
2023-03-19T18:48:24.265Z,30.13
2023-03-19T18:50:52.244Z,29.92
2023-03-19T18:53:19.068Z,30.55
2023-03-19T18:55:46.945Z,30.72
2023-03-19T18:58:26.541Z,30.84
2023-03-19T19:00:54.096Z,31.34
2023-03-19T19:03:28.529Z,29.37
2023-03-19T19:05:56.141Z,30.11
2023-03-19T19:08:25.268Z,30.97
2023-03-19T19:10:56.715Z,29.06
2023-03-19T19:13:27.234Z,29.58
2023-03-19T19:15:54.280Z,26.68
2023-03-19T19:18:24.640Z,26.76
2023-03-19T19:20:53.910Z,27.18
2023-03-19T19:23:22.527Z,27.74
2023-03-19T19:25:55.222Z,25.66
2023-03-19T19:28:27.583Z,25.94
2023-03-19T19:30:57.355Z,25.38
2023-03-19T19:33:27.972Z,25.81
2023-03-19T19:35:55.519Z,26.54
2023-03-19T19:38:22.164Z,25.54
2023-03-19T19:40:52.238Z,23.74
2023-03-19T19:43:31.260Z,24.25
2023-03-19T19:45:59.157Z,24.01
2023-03-19T19:48:30.472Z,24.85
2023-03-19T19:50:58.017Z,24.31
2023-03-19T19:53:26.193Z,24.93
2023-03-19T19:55:53.747Z,27.33
2023-03-19T19:58:32.341Z,26.80
2023-03-19T20:01:04.278Z,26.53
2023-03-19T20:03:33.928Z,25.77
2023-03-19T20:06:01.871Z,25.80
2023-03-19T20:08:28.836Z,24.00
2023-03-19T20:10:56.911Z,23.56
2023-03-19T20:13:29.571Z,22.12
2023-03-19T20:15:58.728Z,20.38
2023-03-19T20:18:30.776Z,18.99
2023-03-19T20:20:59.483Z,18.60
2023-03-19T20:23:26.609Z,17.99
2023-03-19T20:25:53.677Z,16.98
2023-03-19T20:28:30.506Z,17.78
2023-03-19T20:30:57.261Z,19.32
2023-03-19T20:33:24.456Z,20.94
2023-03-19T20:35:52.052Z,20.55
2023-03-19T20:38:18.736Z,20.00
2023-03-19T20:40:49.734Z,22.52
2023-03-19T20:43:29.189Z,24.62
2023-03-19T20:45:58.161Z,25.02
2023-03-19T20:48:26.507Z,26.15
2023-03-19T20:50:54.551Z,27.92
2023-03-19T20:53:21.559Z,28.84
2023-03-19T20:55:49.244Z,26.90
2023-03-19T20:58:29.050Z,27.57
2023-03-19T21:00:57.869Z,26.51
2023-03-19T21:03:30.365Z,24.70
2023-03-19T21:06:06.657Z,23.74
2023-03-19T21:08:56.981Z,23.24
2023-03-19T21:11:36.988Z,22.41
2023-03-19T21:14:03.838Z,21.88
2023-03-19T21:16:32.236Z,22.48
2023-03-19T21:19:00.104Z,21.01
2023-03-19T21:21:34.527Z,19.81
2023-03-19T21:24:03.717Z,20.20
2023-03-19T21:26:30.877Z,18.01
2023-03-19T21:29:05.551Z,17.26
2023-03-19T21:31:32.233Z,16.86
2023-03-19T21:33:58.993Z,15.89
2023-03-19T21:36:25.976Z,15.23
2023-03-19T21:38:52.660Z,14.51
2023-03-19T21:41:23.645Z,14.44
2023-03-19T21:43:54.906Z,14.21
2023-03-19T21:46:26.149Z,12.61
2023-03-19T21:48:55.160Z,13.32
2023-03-19T21:51:23.552Z,13.39
2023-03-19T21:53:50.369Z,13.95
2023-03-19T21:56:24.815Z,14.23
2023-03-19T21:58:52.897Z,13.30
2023-03-19T22:01:23.512Z,13.26
2023-03-19T22:03:52.130Z,13.32
2023-03-19T22:06:19.098Z,13.87
2023-03-19T22:08:48.169Z,14.34
2023-03-19T22:11:25.122Z,13.99
2023-03-19T22:13:52.361Z,13.31
2023-03-19T22:16:23.129Z,13.25
2023-03-19T22:18:50.921Z,13.54
2023-03-19T22:21:20.859Z,12.75
2023-03-19T22:23:48.054Z,12.02
2023-03-19T22:26:29.497Z,11.78
2023-03-19T22:28:59.249Z,11.67
2023-03-19T22:31:26.114Z,11.27
2023-03-19T22:33:53.199Z,11.32
2023-03-19T22:36:20.085Z,11.34
2023-03-19T22:38:48.651Z,11.69
2023-03-19T22:41:29.132Z,10.82
2023-03-19T22:43:58.187Z,11.46
2023-03-19T22:46:26.018Z,11.84
2023-03-19T22:48:52.878Z,10.94
2023-03-19T22:51:23.821Z,10.53
2023-03-19T22:53:51.223Z,10.90
2023-03-19T22:56:18.967Z,10.39
2023-03-19T22:58:46.752Z,10.41
2023-03-19T23:01:29.640Z,10.66
2023-03-19T23:03:57.126Z,10.51
2023-03-19T23:06:30.564Z,10.20
2023-03-19T23:08:58.037Z,10.13
2023-03-19T23:11:24.775Z,9.64
2023-03-19T23:13:51.657Z,9.76
2023-03-19T23:16:24.021Z,9.30
2023-03-19T23:18:52.071Z,9.04
2023-03-19T23:21:19.839Z,8.35
2023-03-19T23:23:46.960Z,8.00
2023-03-19T23:26:29.209Z,8.03
2023-03-19T23:29:06.368Z,8.03
2023-03-19T23:31:34.347Z,7.90
2023-03-19T23:34:01.057Z,8.62
2023-03-19T23:36:27.812Z,8.40
2023-03-19T23:38:54.427Z,8.61
2023-03-19T23:41:25.045Z,8.70
2023-03-19T23:43:52.871Z,9.10
2023-03-19T23:46:21.073Z,10.01
2023-03-19T23:48:47.911Z,11.07
2023-03-19T23:51:15.920Z,10.93
2023-03-19T23:53:43.130Z,10.42
2023-03-19T23:56:28.284Z,10.97
